Hendrik-Ido-Ambacht, Netherlands
Current Conditions -  °F | °C
As of 10:25 PM on Friday 28 Nov 2014 (Local Time) from EHRD Reporting Station
Clear Clear  
Wind Chill: 37°   Ceiling: Unl
Heat Index: 43°   Visibility: 5mi
Dew Point: 37°   Wind: 12mph
Humidity: 81%   Direction: 90°E
Pressure: 29.85"   Gusts: NA
Location:  51.84°N, 4.64°E
Report Text: EHRD 282125Z AUTO 09010KT 040V130 8000 NSC 06/03 Q1011 NOSIG
Loading
Personal Weather Stations






























Interactive Weather Map New forecast layout! Learn more

10-Day Weather Forecast

Advertisements
Track Severe Weather on mobile